sensor_id;sensor_type;location;lat;lon;timestamp;pressure;altitude;pressure_sealevel;temperature;humidity
49841;BME280;35738;49.890;5.930;2023-04-26T00:00:50;95956.09;;;-0.75;100.00
49841;BME280;35738;49.890;5.930;2023-04-26T00:03:18;95948.78;;;-0.79;100.00
49841;BME280;35738;49.890;5.930;2023-04-26T00:05:46;95959.06;;;-0.76;100.00
49841;BME280;35738;49.890;5.930;2023-04-26T00:08:13;95957.19;;;-0.76;100.00
49841;BME280;35738;49.890;5.930;2023-04-26T00:10:39;95960.69;;;-0.75;100.00
49841;BME280;35738;49.890;5.930;2023-04-26T00:13:06;95961.31;;;-0.68;100.00
49841;BME280;35738;49.890;5.930;2023-04-26T00:15:33;95959.50;;;-0.62;100.00
49841;BME280;35738;49.890;5.930;2023-04-26T00:18:00;95960.56;;;-0.63;100.00
49841;BME280;35738;49.890;5.930;2023-04-26T00:20:26;95948.69;;;-0.62;100.00
49841;BME280;35738;49.890;5.930;2023-04-26T00:22:53;95961.63;;;-0.65;100.00
49841;BME280;35738;49.890;5.930;2023-04-26T00:25:19;95946.31;;;-0.54;100.00
49841;BME280;35738;49.890;5.930;2023-04-26T00:28:04;95938.25;;;-0.49;100.00
49841;BME280;35738;49.890;5.930;2023-04-26T00:30:30;95944.78;;;-0.45;100.00
49841;BME280;35738;49.890;5.930;2023-04-26T00:32:57;95944.69;;;-0.55;100.00
49841;BME280;35738;49.890;5.930;2023-04-26T00:35:24;95935.50;;;-0.54;100.00
49841;BME280;35738;49.890;5.930;2023-04-26T00:37:50;95941.44;;;-0.57;100.00
49841;BME280;35738;49.890;5.930;2023-04-26T00:40:19;95933.03;;;-0.60;100.00
49841;BME280;35738;49.890;5.930;2023-04-26T00:42:46;95943.19;;;-0.73;100.00
49841;BME280;35738;49.890;5.930;2023-04-26T00:45:12;95937.97;;;-0.79;100.00
49841;BME280;35738;49.890;5.930;2023-04-26T00:47:39;95939.75;;;-0.90;100.00
49841;BME280;35738;49.890;5.930;2023-04-26T00:50:06;95937.28;;;-0.97;100.00
49841;BME280;35738;49.890;5.930;2023-04-26T00:52:34;95946.75;;;-0.94;100.00
49841;BME280;35738;49.890;5.930;2023-04-26T00:55:01;95937.97;;;-0.79;100.00
49841;BME280;35738;49.890;5.930;2023-04-26T00:57:28;95947.78;;;-0.73;100.00
49841;BME280;35738;49.890;5.930;2023-04-26T00:59:54;95940.03;;;-0.65;100.00
49841;BME280;35738;49.890;5.930;2023-04-26T01:02:21;95945.25;;;-0.53;100.00
49841;BME280;35738;49.890;5.930;2023-04-26T01:04:48;95944.22;;;-0.47;100.00
49841;BME280;35738;49.890;5.930;2023-04-26T01:07:14;95945.06;;;-0.41;100.00
49841;BME280;35738;49.890;5.930;2023-04-26T01:09:42;95943.47;;;-0.37;100.00
49841;BME280;35738;49.890;5.930;2023-04-26T01:12:10;95940.25;;;-0.34;100.00
49841;BME280;35738;49.890;5.930;2023-04-26T01:14:38;95943.81;;;-0.28;100.00
49841;BME280;35738;49.890;5.930;2023-04-26T01:17:05;95931.34;;;-0.35;100.00
49841;BME280;35738;49.890;5.930;2023-04-26T01:19:32;95932.63;;;-0.42;100.00
49841;BME280;35738;49.890;5.930;2023-04-26T01:21:58;95926.41;;;-0.43;100.00
49841;BME280;35738;49.890;5.930;2023-04-26T01:24:25;95932.34;;;-0.46;100.00
49841;BME280;35738;49.890;5.930;2023-04-26T01:26:51;95940.38;;;-0.56;100.00
49841;BME280;35738;49.890;5.930;2023-04-26T01:29:19;95945.13;;;-0.68;100.00
49841;BME280;35738;49.890;5.930;2023-04-26T01:31:48;95946.88;;;-0.79;100.00
49841;BME280;35738;49.890;5.930;2023-04-26T01:34:15;95936.56;;;-0.87;100.00
49841;BME280;35738;49.890;5.930;2023-04-26T01:36:42;95936.25;;;-0.90;100.00
49841;BME280;35738;49.890;5.930;2023-04-26T01:39:08;95934.88;;;-0.93;100.00
49841;BME280;35738;49.890;5.930;2023-04-26T01:41:42;95931.56;;;-1.00;100.00
49841;BME280;35738;49.890;5.930;2023-04-26T01:44:09;95945.31;;;-1.02;100.00
49841;BME280;35738;49.890;5.930;2023-04-26T01:46:35;95939.94;;;-1.02;100.00
49841;BME280;35738;49.890;5.930;2023-04-26T01:49:02;95942.06;;;-1.04;100.00
49841;BME280;35738;49.890;5.930;2023-04-26T01:51:28;95938.28;;;-1.03;100.00
49841;BME280;35738;49.890;5.930;2023-04-26T01:53:55;95938.00;;;-1.06;100.00
49841;BME280;35738;49.890;5.930;2023-04-26T01:56:23;95945.78;;;-1.10;100.00
49841;BME280;35738;49.890;5.930;2023-04-26T01:58:49;95938.19;;;-1.13;100.00
49841;BME280;35738;49.890;5.930;2023-04-26T02:01:17;95937.38;;;-1.13;100.00
49841;BME280;35738;49.890;5.930;2023-04-26T02:03:44;95933.09;;;-1.09;100.00
49841;BME280;35738;49.890;5.930;2023-04-26T02:06:11;95925.00;;;-1.09;100.00
49841;BME280;35738;49.890;5.930;2023-04-26T02:08:39;95930.16;;;-1.08;100.00
49841;BME280;35738;49.890;5.930;2023-04-26T02:11:06;95922.00;;;-1.13;100.00
49841;BME280;35738;49.890;5.930;2023-04-26T02:13:32;95925.25;;;-1.11;100.00
49841;BME280;35738;49.890;5.930;2023-04-26T02:15:59;95935.25;;;-1.11;100.00
49841;BME280;35738;49.890;5.930;2023-04-26T02:18:25;95920.47;;;-1.04;100.00
49841;BME280;35738;49.890;5.930;2023-04-26T02:20:52;95929.28;;;-0.86;100.00
49841;BME280;35738;49.890;5.930;2023-04-26T02:23:19;95922.88;;;-0.75;100.00
49841;BME280;35738;49.890;5.930;2023-04-26T02:25:46;95926.19;;;-0.73;100.00
49841;BME280;35738;49.890;5.930;2023-04-26T02:28:14;95915.94;;;-0.71;100.00
49841;BME280;35738;49.890;5.930;2023-04-26T02:30:41;95913.00;;;-0.65;100.00
49841;BME280;35738;49.890;5.930;2023-04-26T02:33:08;95922.22;;;-0.60;100.00
49841;BME280;35738;49.890;5.930;2023-04-26T02:35:35;95912.25;;;-0.60;100.00
49841;BME280;35738;49.890;5.930;2023-04-26T02:38:04;95915.50;;;-0.58;100.00
49841;BME280;35738;49.890;5.930;2023-04-26T02:40:31;95907.94;;;-0.56;100.00
49841;BME280;35738;49.890;5.930;2023-04-26T02:42:57;95905.81;;;-0.54;100.00
49841;BME280;35738;49.890;5.930;2023-04-26T02:45:24;95908.22;;;-0.57;100.00
49841;BME280;35738;49.890;5.930;2023-04-26T02:47:51;95909.03;;;-0.57;100.00
49841;BME280;35738;49.890;5.930;2023-04-26T02:50:17;95896.59;;;-0.58;100.00
49841;BME280;35738;49.890;5.930;2023-04-26T02:52:44;95895.47;;;-0.62;100.00
49841;BME280;35738;49.890;5.930;2023-04-26T02:55:11;95885.97;;;-0.70;100.00
49841;BME280;35738;49.890;5.930;2023-04-26T02:57:37;95881.34;;;-0.74;100.00
49841;BME280;35738;49.890;5.930;2023-04-26T03:00:05;95890.00;;;-0.72;100.00
49841;BME280;35738;49.890;5.930;2023-04-26T03:02:34;95898.09;;;-0.72;100.00
49841;BME280;35738;49.890;5.930;2023-04-26T03:05:02;95883.25;;;-0.70;100.00
49841;BME280;35738;49.890;5.930;2023-04-26T03:07:28;95879.28;;;-0.62;100.00
49841;BME280;35738;49.890;5.930;2023-04-26T03:09:56;95879.28;;;-0.62;100.00
49841;BME280;35738;49.890;5.930;2023-04-26T03:12:23;95869.81;;;-0.65;100.00
49841;BME280;35738;49.890;5.930;2023-04-26T03:14:49;95876.78;;;-0.69;100.00
49841;BME280;35738;49.890;5.930;2023-04-26T03:17:16;95876.25;;;-0.71;100.00
49841;BME280;35738;49.890;5.930;2023-04-26T03:19:42;95873.94;;;-0.84;100.00
49841;BME280;35738;49.890;5.930;2023-04-26T03:22:09;95888.38;;;-1.00;100.00
49841;BME280;35738;49.890;5.930;2023-04-26T03:24:37;95884.88;;;-1.01;100.00
49841;BME280;35738;49.890;5.930;2023-04-26T03:27:04;95877.84;;;-1.02;100.00
49841;BME280;35738;49.890;5.930;2023-04-26T03:29:30;95887.53;;;-1.06;100.00
49841;BME280;35738;49.890;5.930;2023-04-26T03:31:57;95885.59;;;-1.10;100.00
49841;BME280;35738;49.890;5.930;2023-04-26T03:34:23;95886.91;;;-1.13;100.00
49841;BME280;35738;49.890;5.930;2023-04-26T03:36:50;95888.28;;;-1.10;100.00
49841;BME280;35738;49.890;5.930;2023-04-26T03:39:17;95883.19;;;-1.07;100.00
49841;BME280;35738;49.890;5.930;2023-04-26T03:41:43;95881.00;;;-1.10;100.00
49841;BME280;35738;49.890;5.930;2023-04-26T03:44:10;95893.91;;;-1.17;100.00
49841;BME280;35738;49.890;5.930;2023-04-26T03:46:37;95891.97;;;-1.21;100.00
49841;BME280;35738;49.890;5.930;2023-04-26T03:49:04;95882.50;;;-1.24;100.00
49841;BME280;35738;49.890;5.930;2023-04-26T03:51:30;95883.78;;;-1.32;100.00
49841;BME280;35738;49.890;5.930;2023-04-26T03:54:00;95883.97;;;-1.38;100.00
49841;BME280;35738;49.890;5.930;2023-04-26T03:56:26;95882.16;;;-1.54;100.00
49841;BME280;35738;49.890;5.930;2023-04-26T03:58:53;95881.41;;;-1.72;100.00
49841;BME280;35738;49.890;5.930;2023-04-26T04:01:19;95886.38;;;-1.85;100.00
49841;BME280;35738;49.890;5.930;2023-04-26T04:03:46;95883.44;;;-1.84;100.00
49841;BME280;35738;49.890;5.930;2023-04-26T04:06:13;95885.50;;;-1.91;100.00
49841;BME280;35738;49.890;5.930;2023-04-26T04:08:39;95884.63;;;-1.97;100.00
49841;BME280;35738;49.890;5.930;2023-04-26T04:11:06;95883.31;;;-1.94;100.00
49841;BME280;35738;49.890;5.930;2023-04-26T04:13:33;95887.56;;;-1.98;100.00
49841;BME280;35738;49.890;5.930;2023-04-26T04:15:59;95882.19;;;-1.98;100.00
49841;BME280;35738;49.890;5.930;2023-04-26T04:18:26;95898.72;;;-2.11;100.00
49841;BME280;35738;49.890;5.930;2023-04-26T04:20:53;95893.75;;;-2.19;100.00
49841;BME280;35738;49.890;5.930;2023-04-26T04:23:20;95894.25;;;-2.22;100.00
49841;BME280;35738;49.890;5.930;2023-04-26T04:25:46;95897.53;;;-2.20;100.00
49841;BME280;35738;49.890;5.930;2023-04-26T04:28:14;95895.72;;;-2.15;100.00
49841;BME280;35738;49.890;5.930;2023-04-26T04:30:41;95904.25;;;-2.01;100.00
49841;BME280;35738;49.890;5.930;2023-04-26T04:33:09;95904.56;;;-1.98;100.00
49841;BME280;35738;49.890;5.930;2023-04-26T04:35:36;95898.03;;;-2.02;100.00
49841;BME280;35738;49.890;5.930;2023-04-26T04:38:02;95899.84;;;-2.07;100.00
49841;BME280;35738;49.890;5.930;2023-04-26T04:40:31;95901.97;;;-2.09;100.00
49841;BME280;35738;49.890;5.930;2023-04-26T04:42:58;95907.63;;;-2.11;100.00
49841;BME280;35738;49.890;5.930;2023-04-26T04:45:26;95911.75;;;-2.03;100.00
49841;BME280;35738;49.890;5.930;2023-04-26T04:47:55;95910.88;;;-1.87;100.00
49841;BME280;35738;49.890;5.930;2023-04-26T04:50:23;95922.81;;;-1.83;100.00
49841;BME280;35738;49.890;5.930;2023-04-26T04:52:51;95920.09;;;-1.83;100.00
49841;BME280;35738;49.890;5.930;2023-04-26T04:55:17;95926.25;;;-1.44;100.00
49841;BME280;35738;49.890;5.930;2023-04-26T04:57:45;95923.03;;;-1.19;100.00
49841;BME280;35738;49.890;5.930;2023-04-26T05:00:12;95930.28;;;-0.92;100.00
49841;BME280;35738;49.890;5.930;2023-04-26T05:02:41;95922.44;;;-0.67;100.00
49841;BME280;35738;49.890;5.930;2023-04-26T05:05:08;95917.19;;;-0.47;100.00
49841;BME280;35738;49.890;5.930;2023-04-26T05:07:36;95920.22;;;-0.38;100.00
49841;BME280;35738;49.890;5.930;2023-04-26T05:10:04;95918.41;;;-0.27;100.00
49841;BME280;35738;49.890;5.930;2023-04-26T05:12:30;95913.50;;;0.07;100.00
49841;BME280;35738;49.890;5.930;2023-04-26T05:14:57;95913.31;;;0.23;100.00
49841;BME280;35738;49.890;5.930;2023-04-26T05:17:23;95920.44;;;0.40;100.00
49841;BME280;35738;49.890;5.930;2023-04-26T05:19:50;95914.84;;;0.67;100.00
49841;BME280;35738;49.890;5.930;2023-04-26T05:22:16;95917.97;;;1.26;100.00
49841;BME280;35738;49.890;5.930;2023-04-26T05:24:46;95916.81;;;2.18;100.00
49841;BME280;35738;49.890;5.930;2023-04-26T05:27:13;95916.78;;;3.03;100.00
49841;BME280;35738;49.890;5.930;2023-04-26T05:29:40;95906.34;;;3.60;100.00
49841;BME280;35738;49.890;5.930;2023-04-26T05:32:07;95889.56;;;3.47;100.00
49841;BME280;35738;49.890;5.930;2023-04-26T05:34:34;95893.16;;;2.44;100.00
49841;BME280;35738;49.890;5.930;2023-04-26T05:37:02;95881.59;;;2.08;100.00
49841;BME280;35738;49.890;5.930;2023-04-26T05:39:29;95880.22;;;2.16;100.00
49841;BME280;35738;49.890;5.930;2023-04-26T05:41:55;95877.97;;;2.43;100.00
49841;BME280;35738;49.890;5.930;2023-04-26T05:44:22;95872.84;;;2.37;100.00
49841;BME280;35738;49.890;5.930;2023-04-26T05:46:48;95875.63;;;3.25;100.00
49841;BME280;35738;49.890;5.930;2023-04-26T05:49:15;95863.75;;;3.11;100.00
49841;BME280;35738;49.890;5.930;2023-04-26T05:51:41;95871.94;;;2.51;100.00
49841;BME280;35738;49.890;5.930;2023-04-26T05:54:08;95867.38;;;2.42;100.00
49841;BME280;35738;49.890;5.930;2023-04-26T05:56:35;95875.03;;;2.30;100.00
49841;BME280;35738;49.890;5.930;2023-04-26T05:59:01;95881.56;;;2.18;100.00
49841;BME280;35738;49.890;5.930;2023-04-26T06:01:28;95882.91;;;2.21;100.00
49841;BME280;35738;49.890;5.930;2023-04-26T06:03:54;95880.88;;;1.62;100.00
49841;BME280;35738;49.890;5.930;2023-04-26T06:06:26;95886.78;;;1.84;100.00
49841;BME280;35738;49.890;5.930;2023-04-26T06:08:53;95883.22;;;2.04;100.00
49841;BME280;35738;49.890;5.930;2023-04-26T06:11:19;95895.22;;;1.78;100.00
49841;BME280;35738;49.890;5.930;2023-04-26T06:13:46;95894.66;;;1.25;100.00
49841;BME280;35738;49.890;5.930;2023-04-26T06:16:13;95896.81;;;1.08;100.00
49841;BME280;35738;49.890;5.930;2023-04-26T06:18:40;95895.75;;;1.70;100.00
49841;BME280;35738;49.890;5.930;2023-04-26T06:21:06;95904.97;;;1.43;100.00
49841;BME280;35738;49.890;5.930;2023-04-26T06:23:33;95909.28;;;1.14;100.00
49841;BME280;35738;49.890;5.930;2023-04-26T06:25:59;95914.97;;;1.12;100.00
49841;BME280;35738;49.890;5.930;2023-04-26T06:28:26;95916.88;;;1.42;100.00
49841;BME280;35738;49.890;5.930;2023-04-26T06:30:53;95912.31;;;2.73;100.00
49841;BME280;35738;49.890;5.930;2023-04-26T06:33:19;95916.88;;;3.66;100.00
49841;BME280;35738;49.890;5.930;2023-04-26T06:35:46;95899.13;;;4.32;100.00
49841;BME280;35738;49.890;5.930;2023-04-26T06:38:12;95895.44;;;4.70;100.00
49841;BME280;35738;49.890;5.930;2023-04-26T06:40:39;95883.75;;;5.07;100.00
49841;BME280;35738;49.890;5.930;2023-04-26T06:43:06;95887.53;;;5.11;100.00
49841;BME280;35738;49.890;5.930;2023-04-26T06:45:33;95892.69;;;5.13;100.00
49841;BME280;35738;49.890;5.930;2023-04-26T06:47:59;95895.69;;;4.50;100.00
49841;BME280;35738;49.890;5.930;2023-04-26T06:50:27;95894.00;;;4.97;100.00
49841;BME280;35738;49.890;5.930;2023-04-26T06:52:54;95887.09;;;5.42;100.00
49841;BME280;35738;49.890;5.930;2023-04-26T06:55:21;95894.53;;;5.88;100.00
49841;BME280;35738;49.890;5.930;2023-04-26T06:57:48;95887.38;;;6.24;100.00
49841;BME280;35738;49.890;5.930;2023-04-26T07:00:16;95889.66;;;5.52;100.00
49841;BME280;35738;49.890;5.930;2023-04-26T07:02:43;95886.72;;;5.81;100.00
49841;BME280;35738;49.890;5.930;2023-04-26T07:05:10;95895.00;;;5.76;100.00
49841;BME280;35738;49.890;5.930;2023-04-26T07:07:37;95890.31;;;6.14;100.00
49841;BME280;35738;49.890;5.930;2023-04-26T07:10:03;95892.31;;;5.57;100.00
49841;BME280;35738;49.890;5.930;2023-04-26T07:12:30;95891.41;;;5.05;100.00
49841;BME280;35738;49.890;5.930;2023-04-26T07:14:57;95883.72;;;4.22;100.00
49841;BME280;35738;49.890;5.930;2023-04-26T07:17:23;95893.72;;;3.74;100.00
49841;BME280;35738;49.890;5.930;2023-04-26T07:19:50;95902.06;;;3.48;100.00
49841;BME280;35738;49.890;5.930;2023-04-26T07:22:16;95915.03;;;3.62;100.00
49841;BME280;35738;49.890;5.930;2023-04-26T07:24:43;95908.13;;;4.03;100.00
49841;BME280;35738;49.890;5.930;2023-04-26T07:27:09;95896.56;;;4.17;100.00
49841;BME280;35738;49.890;5.930;2023-04-26T07:29:37;95902.22;;;4.49;100.00
49841;BME280;35738;49.890;5.930;2023-04-26T07:32:04;95910.44;;;4.68;100.00
49841;BME280;35738;49.890;5.930;2023-04-26T07:34:32;95899.50;;;4.49;100.00
49841;BME280;35738;49.890;5.930;2023-04-26T07:36:58;95900.50;;;4.58;100.00
49841;BME280;35738;49.890;5.930;2023-04-26T07:39:25;95891.28;;;4.54;100.00
49841;BME280;35738;49.890;5.930;2023-04-26T07:41:51;95896.94;;;4.34;100.00
49841;BME280;35738;49.890;5.930;2023-04-26T07:44:18;95903.84;;;4.50;100.00
49841;BME280;35738;49.890;5.930;2023-04-26T07:46:44;95907.63;;;4.54;100.00
49841;BME280;35738;49.890;5.930;2023-04-26T07:49:12;95898.03;;;4.81;100.00
49841;BME280;35738;49.890;5.930;2023-04-26T07:51:42;95892.78;;;4.65;100.00
49841;BME280;35738;49.890;5.930;2023-04-26T07:54:09;95898.97;;;5.32;100.00
49841;BME280;35738;49.890;5.930;2023-04-26T07:56:36;95894.41;;;5.28;100.00
49841;BME280;35738;49.890;5.930;2023-04-26T07:59:02;95892.78;;;5.27;100.00
49841;BME280;35738;49.890;5.930;2023-04-26T08:01:30;95892.59;;;5.56;100.00
49841;BME280;35738;49.890;5.930;2023-04-26T08:03:56;95889.97;;;5.32;100.00
49841;BME280;35738;49.890;5.930;2023-04-26T08:06:24;95886.84;;;4.82;100.00
49841;BME280;35738;49.890;5.930;2023-04-26T08:08:51;95897.47;;;5.02;100.00
49841;BME280;35738;49.890;5.930;2023-04-26T08:11:19;95892.00;;;5.02;100.00
49841;BME280;35738;49.890;5.930;2023-04-26T08:13:45;95894.50;;;4.80;100.00
49841;BME280;35738;49.890;5.930;2023-04-26T08:16:15;95889.19;;;4.89;100.00
49841;BME280;35738;49.890;5.930;2023-04-26T08:18:43;95889.22;;;5.07;100.00
49841;BME280;35738;49.890;5.930;2023-04-26T08:21:12;95882.50;;;5.19;100.00
49841;BME280;35738;49.890;5.930;2023-04-26T08:23:48;95892.09;;;5.54;100.00
49841;BME280;35738;49.890;5.930;2023-04-26T08:26:14;95890.03;;;5.08;100.00
49841;BME280;35738;49.890;5.930;2023-04-26T08:28:41;95886.47;;;4.89;100.00
49841;BME280;35738;49.890;5.930;2023-04-26T08:31:07;95896.81;;;5.10;100.00
49841;BME280;35738;49.890;5.930;2023-04-26T08:33:35;95891.06;;;5.12;100.00
49841;BME280;35738;49.890;5.930;2023-04-26T08:36:02;95892.00;;;4.84;100.00
49841;BME280;35738;49.890;5.930;2023-04-26T08:38:28;95896.28;;;5.08;100.00
49841;BME280;35738;49.890;5.930;2023-04-26T08:40:58;95896.56;;;4.88;100.00
49841;BME280;35738;49.890;5.930;2023-04-26T08:43:28;95900.66;;;5.28;100.00
49841;BME280;35738;49.890;5.930;2023-04-26T08:46:01;95895.13;;;5.85;100.00
49841;BME280;35738;49.890;5.930;2023-04-26T08:48:33;95880.00;;;5.92;100.00
49841;BME280;35738;49.890;5.930;2023-04-26T08:51:02;95879.59;;;6.18;100.00
49841;BME280;35738;49.890;5.930;2023-04-26T08:53:30;95882.00;;;6.05;100.00
49841;BME280;35738;49.890;5.930;2023-04-26T08:55:57;95883.75;;;6.43;100.00
49841;BME280;35738;49.890;5.930;2023-04-26T08:58:25;95878.19;;;6.89;100.00
49841;BME280;35738;49.890;5.930;2023-04-26T09:00:52;95869.53;;;7.09;100.00
49841;BME280;35738;49.890;5.930;2023-04-26T09:03:21;95874.06;;;7.27;100.00
49841;BME280;35738;49.890;5.930;2023-04-26T09:05:49;95876.81;;;7.14;100.00
49841;BME280;35738;49.890;5.930;2023-04-26T09:08:16;95876.16;;;6.53;100.00
49841;BME280;35738;49.890;5.930;2023-04-26T09:10:43;95866.53;;;6.15;100.00
49841;BME280;35738;49.890;5.930;2023-04-26T09:13:10;95870.28;;;6.32;100.00
49841;BME280;35738;49.890;5.930;2023-04-26T09:15:37;95867.88;;;6.86;100.00
49841;BME280;35738;49.890;5.930;2023-04-26T09:20:44;95874.50;;;7.07;100.00
49841;BME280;35738;49.890;5.930;2023-04-26T09:23:11;95873.63;;;6.98;100.00
49841;BME280;35738;49.890;5.930;2023-04-26T09:25:38;95873.72;;;6.65;100.00
49841;BME280;35738;49.890;5.930;2023-04-26T09:28:19;95874.66;;;6.75;100.00
49841;BME280;35738;49.890;5.930;2023-04-26T09:30:47;95870.47;;;7.05;100.00
49841;BME280;35738;49.890;5.930;2023-04-26T09:33:14;95865.22;;;6.94;100.00
49841;BME280;35738;49.890;5.930;2023-04-26T09:35:42;95867.50;;;7.15;100.00
49841;BME280;35738;49.890;5.930;2023-04-26T09:38:15;95864.69;;;7.42;100.00
49841;BME280;35738;49.890;5.930;2023-04-26T09:40:47;95875.28;;;7.57;100.00
49841;BME280;35738;49.890;5.930;2023-04-26T09:43:15;95869.81;;;7.21;100.00
49841;BME280;35738;49.890;5.930;2023-04-26T09:45:47;95873.25;;;7.27;100.00
49841;BME280;35738;49.890;5.930;2023-04-26T09:48:24;95870.38;;;6.96;100.00
49841;BME280;35738;49.890;5.930;2023-04-26T09:51:00;95868.91;;;6.76;100.00
49841;BME280;35738;49.890;5.930;2023-04-26T09:53:39;95863.31;;;6.26;100.00
49841;BME280;35738;49.890;5.930;2023-04-26T09:56:07;95851.50;;;6.72;100.00
49841;BME280;35738;49.890;5.930;2023-04-26T09:58:39;95858.25;;;6.47;100.00
49841;BME280;35738;49.890;5.930;2023-04-26T10:01:07;95851.78;;;6.16;100.00
49841;BME280;35738;49.890;5.930;2023-04-26T10:03:35;95848.22;;;6.56;100.00
49841;BME280;35738;49.890;5.930;2023-04-26T10:06:03;95851.84;;;6.93;100.00
49841;BME280;35738;49.890;5.930;2023-04-26T10:08:31;95854.47;;;7.48;100.00
49841;BME280;35738;49.890;5.930;2023-04-26T10:11:03;95842.16;;;7.59;100.00
49841;BME280;35738;49.890;5.930;2023-04-26T10:13:34;95836.41;;;7.69;100.00
49841;BME280;35738;49.890;5.930;2023-04-26T10:16:01;95843.31;;;7.67;100.00
49841;BME280;35738;49.890;5.930;2023-04-26T10:18:29;95839.31;;;7.95;100.00
49841;BME280;35738;49.890;5.930;2023-04-26T10:20:59;95831.00;;;7.55;100.00
49841;BME280;35738;49.890;5.930;2023-04-26T10:23:27;95824.91;;;7.58;100.00
49841;BME280;35738;49.890;5.930;2023-04-26T10:25:54;95825.63;;;7.28;100.00
49841;BME280;35738;49.890;5.930;2023-04-26T10:31:10;95823.06;;;7.09;100.00
49841;BME280;35738;49.890;5.930;2023-04-26T10:33:37;95831.38;;;7.04;100.00
49841;BME280;35738;49.890;5.930;2023-04-26T10:36:11;95834.72;;;7.01;100.00
49841;BME280;35738;49.890;5.930;2023-04-26T10:39:16;95831.09;;;6.92;100.00
49841;BME280;35738;49.890;5.930;2023-04-26T10:41:35;95829.22;;;6.79;100.00
49841;BME280;35738;49.890;5.930;2023-04-26T10:44:39;95820.09;;;6.83;100.00
49841;BME280;35738;49.890;5.930;2023-04-26T10:47:30;95813.44;;;7.12;100.00
49841;BME280;35738;49.890;5.930;2023-04-26T10:50:08;95805.91;;;7.40;100.00
49841;BME280;35738;49.890;5.930;2023-04-26T10:55:40;95798.09;;;7.24;100.00
49841;BME280;35738;49.890;5.930;2023-04-26T10:58:31;95804.72;;;7.32;100.00
49841;BME280;35738;49.890;5.930;2023-04-26T11:03:43;95798.38;;;7.90;100.00
49841;BME280;35738;49.890;5.930;2023-04-26T11:06:46;95791.19;;;8.03;100.00
49841;BME280;35738;49.890;5.930;2023-04-26T11:09:37;95803.97;;;7.54;100.00
49841;BME280;35738;49.890;5.930;2023-04-26T11:12:11;95803.97;;;7.54;100.00
49841;BME280;35738;49.890;5.930;2023-04-26T11:14:39;95798.16;;;7.33;100.00
49841;BME280;35738;49.890;5.930;2023-04-26T11:17:08;95803.09;;;7.45;100.00
49841;BME280;35738;49.890;5.930;2023-04-26T11:19:37;95811.13;;;7.27;100.00
49841;BME280;35738;49.890;5.930;2023-04-26T11:22:06;95799.56;;;7.30;100.00
49841;BME280;35738;49.890;5.930;2023-04-26T11:24:34;95797.22;;;7.38;100.00
49841;BME280;35738;49.890;5.930;2023-04-26T11:27:08;95797.00;;;7.48;100.00
49841;BME280;35738;49.890;5.930;2023-04-26T11:29:35;95790.28;;;7.54;100.00
49841;BME280;35738;49.890;5.930;2023-04-26T11:32:03;95786.88;;;7.79;100.00
49841;BME280;35738;49.890;5.930;2023-04-26T11:34:37;95787.28;;;7.64;100.00
49841;BME280;35738;49.890;5.930;2023-04-26T11:37:05;95781.94;;;7.59;100.00
49841;BME280;35738;49.890;5.930;2023-04-26T11:39:33;95779.13;;;8.12;100.00
49841;BME280;35738;49.890;5.930;2023-04-26T11:42:25;95777.69;;;8.37;100.00
49841;BME280;35738;49.890;5.930;2023-04-26T11:44:52;95773.50;;;8.09;100.00
49841;BME280;35738;49.890;5.930;2023-04-26T11:47:19;95778.06;;;8.22;100.00
49841;BME280;35738;49.890;5.930;2023-04-26T11:49:47;95776.41;;;8.43;100.00
49841;BME280;35738;49.890;5.930;2023-04-26T11:52:13;95776.78;;;8.59;100.00
49841;BME280;35738;49.890;5.930;2023-04-26T11:54:45;95777.09;;;8.66;100.00
49841;BME280;35738;49.890;5.930;2023-04-26T11:57:13;95775.63;;;8.60;100.00
49841;BME280;35738;49.890;5.930;2023-04-26T11:59:43;95785.03;;;8.85;100.00
49841;BME280;35738;49.890;5.930;2023-04-26T12:02:10;95783.75;;;8.91;100.00
49841;BME280;35738;49.890;5.930;2023-04-26T12:04:37;95776.81;;;8.85;100.00
49841;BME280;35738;49.890;5.930;2023-04-26T12:07:07;95785.78;;;8.51;100.00
49841;BME280;35738;49.890;5.930;2023-04-26T12:09:39;95783.34;;;8.49;100.00
49841;BME280;35738;49.890;5.930;2023-04-26T12:12:06;95786.75;;;8.55;100.00
49841;BME280;35738;49.890;5.930;2023-04-26T12:14:36;95780.19;;;8.25;100.00
49841;BME280;35738;49.890;5.930;2023-04-26T12:17:05;95778.56;;;8.24;100.00
49841;BME280;35738;49.890;5.930;2023-04-26T12:19:32;95778.66;;;7.79;100.00
49841;BME280;35738;49.890;5.930;2023-04-26T12:21:59;95778.25;;;7.63;100.00
49841;BME280;35738;49.890;5.930;2023-04-26T12:24:28;95782.28;;;7.66;100.00
49841;BME280;35738;49.890;5.930;2023-04-26T12:26:55;95780.41;;;7.44;100.00
49841;BME280;35738;49.890;5.930;2023-04-26T12:29:22;95779.59;;;7.44;100.00
49841;BME280;35738;49.890;5.930;2023-04-26T12:31:49;95782.38;;;7.52;100.00
49841;BME280;35738;49.890;5.930;2023-04-26T12:34:16;95781.41;;;7.79;100.00
49841;BME280;35738;49.890;5.930;2023-04-26T12:36:43;95782.47;;;8.01;100.00
49841;BME280;35738;49.890;5.930;2023-04-26T12:39:11;95781.03;;;8.03;100.00
49841;BME280;35738;49.890;5.930;2023-04-26T12:41:41;95778.19;;;8.17;100.00
49841;BME280;35738;49.890;5.930;2023-04-26T12:44:09;95781.44;;;8.58;100.00
49841;BME280;35738;49.890;5.930;2023-04-26T12:46:36;95776.22;;;9.31;100.00
49841;BME280;35738;49.890;5.930;2023-04-26T12:49:03;95778.28;;;9.43;100.00
49841;BME280;35738;49.890;5.930;2023-04-26T12:51:30;95780.91;;;9.13;100.00
49841;BME280;35738;49.890;5.930;2023-04-26T12:53:57;95781.06;;;9.08;100.00
49841;BME280;35738;49.890;5.930;2023-04-26T12:56:23;95779.28;;;9.12;100.00
49841;BME280;35738;49.890;5.930;2023-04-26T12:58:50;95772.50;;;9.36;100.00
49841;BME280;35738;49.890;5.930;2023-04-26T13:01:17;95776.34;;;9.69;100.00
49841;BME280;35738;49.890;5.930;2023-04-26T13:03:44;95773.19;;;9.97;100.00
49841;BME280;35738;49.890;5.930;2023-04-26T13:06:11;95772.00;;;9.51;100.00
49841;BME280;35738;49.890;5.930;2023-04-26T13:08:38;95774.75;;;9.34;100.00
49841;BME280;35738;49.890;5.930;2023-04-26T13:11:04;95767.16;;;9.39;100.00